createdAt,value
2019-05-12T00:01:28.565Z,5.90
2019-05-12T00:03:58.164Z,5.90
2019-05-12T00:06:28.315Z,5.90
2019-05-12T00:08:58.018Z,5.90
2019-05-12T00:11:28.689Z,5.90
2019-05-12T00:13:58.624Z,6.00
2019-05-12T00:16:28.417Z,6.10
2019-05-12T00:18:58.535Z,6.00
2019-05-12T00:21:28.271Z,6.00
2019-05-12T00:24:12.975Z,6.10
2019-05-12T00:26:42.897Z,6.00
2019-05-12T00:29:12.075Z,6.10
2019-05-12T00:31:41.075Z,6.10
2019-05-12T00:34:10.376Z,6.10
2019-05-12T00:36:39.491Z,6.10
2019-05-12T00:39:08.824Z,6.10
2019-05-12T00:41:39.004Z,6.00
2019-05-12T00:44:08.790Z,6.00
2019-05-12T00:46:38.645Z,6.00
2019-05-12T00:49:08.294Z,5.90
2019-05-12T00:51:38.344Z,5.80
2019-05-12T00:54:09.257Z,5.80
2019-05-12T00:56:39.205Z,5.80
2019-05-12T00:59:08.593Z,5.80
2019-05-12T01:01:38.089Z,5.80
2019-05-12T01:04:08.844Z,5.90
2019-05-12T01:06:39.157Z,5.90
2019-05-12T01:09:08.946Z,6.00
2019-05-12T01:11:38.122Z,6.00
2019-05-12T01:14:19.499Z,5.90
2019-05-12T01:16:48.704Z,5.90
2019-05-12T01:19:18.524Z,5.80
2019-05-12T01:21:48.140Z,5.80
2019-05-12T01:24:18.764Z,5.80
2019-05-12T01:26:48.127Z,5.90
2019-05-12T01:29:17.637Z,6.00
2019-05-12T01:31:48.668Z,6.00
2019-05-12T01:34:18.193Z,6.00
2019-05-12T01:36:48.327Z,6.10
2019-05-12T01:39:18.801Z,6.10
2019-05-12T01:41:48.232Z,6.00
2019-05-12T01:44:18.379Z,6.00
2019-05-12T01:46:48.364Z,5.90
2019-05-12T01:49:18.656Z,5.90
2019-05-12T01:51:48.101Z,5.80
2019-05-12T01:54:18.853Z,5.80
2019-05-12T01:56:48.287Z,5.80
2019-05-12T01:59:18.489Z,5.70
2019-05-12T02:01:48.752Z,5.70
2019-05-12T02:04:18.196Z,5.70
2019-05-12T02:06:48.554Z,5.70
2019-05-12T02:09:19.251Z,5.60
2019-05-12T02:11:48.479Z,5.60
2019-05-12T02:14:18.310Z,5.60
2019-05-12T02:16:47.767Z,5.50
2019-05-12T02:19:17.886Z,5.50
2019-05-12T02:21:48.698Z,5.40
2019-05-12T02:24:26.683Z,5.30
2019-05-12T02:26:48.831Z,5.20
2019-05-12T02:29:18.408Z,5.20
2019-05-12T02:31:50.135Z,5.20
2019-05-12T02:34:18.099Z,5.10
2019-05-12T02:36:47.198Z,5.10
2019-05-12T02:39:16.203Z,5.00
2019-05-12T02:41:45.288Z,5.00
2019-05-12T02:44:15.116Z,4.90
2019-05-12T02:46:44.773Z,4.80
2019-05-12T02:49:15.569Z,4.80
2019-05-12T02:51:45.600Z,4.80
2019-05-12T02:54:15.687Z,4.70
2019-05-12T02:56:46.561Z,4.70
2019-05-12T02:59:16.622Z,4.60
2019-05-12T03:01:48.592Z,4.50
2019-05-12T03:04:19.538Z,4.50
2019-05-12T03:06:48.554Z,4.40
2019-05-12T03:09:17.532Z,4.40
2019-05-12T03:11:46.630Z,4.30
2019-05-12T03:14:16.084Z,4.30
2019-05-12T03:16:45.625Z,4.20
2019-05-12T03:19:15.128Z,4.20
2019-05-12T03:21:44.468Z,4.10
2019-05-12T03:24:14.661Z,4.10
2019-05-12T03:26:44.918Z,4.10
2019-05-12T03:29:14.899Z,4.10
2019-05-12T03:31:48.745Z,4.10
2019-05-12T03:34:19.432Z,4.10
2019-05-12T03:36:51.662Z,4.10
2019-05-12T03:39:16.009Z,4.10
2019-05-12T03:41:44.944Z,4.10
2019-05-12T03:44:15.035Z,4.00
2019-05-12T03:46:45.519Z,4.00
2019-05-12T03:49:16.089Z,3.90
2019-05-12T03:51:45.766Z,3.90
2019-05-12T03:54:15.420Z,3.90
2019-05-12T03:56:45.126Z,3.90
2019-05-12T03:59:15.058Z,3.80
2019-05-12T04:02:04.756Z,3.80
2019-05-12T04:04:34.744Z,3.80
2019-05-12T04:07:05.129Z,3.90
2019-05-12T04:09:34.971Z,3.80
2019-05-12T04:12:05.653Z,3.80
2019-05-12T04:14:34.725Z,3.80
2019-05-12T04:17:04.694Z,3.80
2019-05-12T04:19:34.487Z,3.70
2019-05-12T04:22:05.515Z,3.70
2019-05-12T04:24:35.834Z,3.70
2019-05-12T04:27:05.396Z,3.70
2019-05-12T04:29:34.964Z,3.70
2019-05-12T04:32:05.103Z,3.70
2019-05-12T04:34:34.650Z,3.70
2019-05-12T04:37:04.589Z,3.70
2019-05-12T04:39:34.640Z,3.80
2019-05-12T04:42:05.279Z,3.90
2019-05-12T04:44:34.823Z,3.80
2019-05-12T04:47:05.533Z,3.80
2019-05-12T04:49:34.766Z,3.80
2019-05-12T04:52:05.325Z,3.80
2019-05-12T04:54:35.597Z,3.90
2019-05-12T04:57:05.211Z,4.00
2019-05-12T04:59:34.590Z,4.00
2019-05-12T05:02:05.427Z,4.10
2019-05-12T05:04:34.792Z,4.10
2019-05-12T05:07:04.560Z,4.20
2019-05-12T05:09:35.000Z,4.30
2019-05-12T05:12:04.701Z,4.30
2019-05-12T05:14:34.186Z,4.30
2019-05-12T05:17:05.637Z,4.40
2019-05-12T05:19:34.097Z,4.40
2019-05-12T05:22:04.336Z,4.50
2019-05-12T05:24:33.928Z,4.60
2019-05-12T05:27:04.410Z,4.70
2019-05-12T05:29:36.739Z,4.80
2019-05-12T05:32:04.426Z,4.80
2019-05-12T05:34:34.301Z,4.90
2019-05-12T05:37:05.159Z,5.10
2019-05-12T05:39:35.763Z,5.30
2019-05-12T05:42:05.237Z,5.30
2019-05-12T05:44:37.830Z,5.40
2019-05-12T05:47:04.859Z,5.50
2019-05-12T05:49:34.266Z,5.60
2019-05-12T05:52:03.639Z,5.80
2019-05-12T05:54:35.897Z,5.90
2019-05-12T05:57:06.111Z,6.00
2019-05-12T05:59:36.695Z,6.10
2019-05-12T06:02:05.018Z,6.10
2019-05-12T06:04:38.992Z,6.20
2019-05-12T06:07:05.088Z,6.40
2019-05-12T06:09:34.184Z,6.50
2019-05-12T06:12:07.557Z,6.60
2019-05-12T06:14:34.757Z,6.70
2019-05-12T06:17:06.185Z,6.80
2019-05-12T06:19:35.486Z,6.80
2019-05-12T06:22:09.122Z,6.90
2019-05-12T06:24:35.317Z,7.00
2019-05-12T06:27:14.316Z,7.00
2019-05-12T06:29:35.144Z,7.10
2019-05-12T06:32:06.407Z,7.10
2019-05-12T06:34:34.873Z,7.20
2019-05-12T06:37:12.067Z,7.20
2019-05-12T06:39:34.471Z,7.30
2019-05-12T06:42:12.399Z,7.40
2019-05-12T06:44:34.127Z,7.40
2019-05-12T06:47:07.957Z,7.50
2019-05-12T06:49:33.854Z,7.60
2019-05-12T06:52:06.919Z,7.60
2019-05-12T06:54:33.627Z,7.60
2019-05-12T06:57:18.625Z,7.70
2019-05-12T06:59:33.932Z,7.70
2019-05-12T07:02:03.423Z,7.80
2019-05-12T07:04:33.910Z,7.90
2019-05-12T07:07:03.713Z,8.00
2019-05-12T07:09:35.340Z,7.90
2019-05-12T07:12:06.958Z,8.00
2019-05-12T07:14:34.566Z,8.00
2019-05-12T07:17:05.949Z,8.10
2019-05-12T07:19:35.512Z,8.10
2019-05-12T07:22:18.101Z,8.20
2019-05-12T07:24:35.232Z,8.30
2019-05-12T07:27:09.120Z,8.40
2019-05-12T07:29:34.969Z,8.50
2019-05-12T07:32:07.180Z,8.50
2019-05-12T07:34:34.804Z,8.60
2019-05-12T07:37:04.406Z,8.70
2019-05-12T07:39:36.991Z,8.80
2019-05-12T07:42:06.465Z,8.80
2019-05-12T07:44:40.128Z,8.90
2019-05-12T07:47:07.558Z,8.90
2019-05-12T07:49:38.515Z,8.90
2019-05-12T07:52:07.274Z,8.90
2019-05-12T07:54:39.503Z,9.00
2019-05-12T07:57:12.189Z,9.00
2019-05-12T07:59:40.770Z,9.00
2019-05-12T08:02:08.267Z,9.10
2019-05-12T08:04:39.930Z,9.10
2019-05-12T08:07:07.892Z,9.20
2019-05-12T08:09:36.834Z,9.20
2019-05-12T08:12:09.646Z,9.30
2019-05-12T08:14:36.614Z,9.40
2019-05-12T08:17:10.974Z,9.40
2019-05-12T08:19:36.343Z,9.50
2019-05-12T08:22:05.240Z,9.60
2019-05-12T08:24:36.949Z,9.60
2019-05-12T08:27:06.403Z,9.70
2019-05-12T08:29:35.800Z,9.60
2019-05-12T08:32:04.669Z,9.70
2019-05-12T08:34:34.059Z,9.80
2019-05-12T08:37:04.302Z,9.80
2019-05-12T08:39:33.772Z,9.70
2019-05-12T08:42:04.018Z,9.70
2019-05-12T08:44:39.565Z,9.80
2019-05-12T08:47:04.096Z,9.90
2019-05-12T08:49:49.455Z,10.00
2019-05-12T08:52:04.318Z,10.20
2019-05-12T08:54:33.738Z,10.20
2019-05-12T08:57:03.874Z,10.30
2019-05-12T08:59:34.206Z,10.30
2019-05-12T09:02:07.300Z,10.40
2019-05-12T09:04:34.697Z,10.50
2019-05-12T09:07:04.363Z,10.50
2019-05-12T09:09:34.015Z,10.50
2019-05-12T09:12:03.551Z,10.50
2019-05-12T09:14:41.128Z,10.70
2019-05-12T09:17:07.154Z,10.90
2019-05-12T09:19:36.162Z,11.00
2019-05-12T09:22:16.494Z,11.10
2019-05-12T09:24:35.891Z,11.30
2019-05-12T09:27:08.718Z,11.40
2019-05-12T09:29:35.447Z,11.50
2019-05-12T09:32:07.949Z,11.60
2019-05-12T09:34:34.923Z,11.90
2019-05-12T09:37:03.997Z,12.10
2019-05-12T09:39:42.060Z,12.20
2019-05-12T09:42:03.947Z,12.50
2019-05-12T09:44:34.125Z,12.60
2019-05-12T09:47:04.114Z,13.00
2019-05-12T09:49:39.260Z,13.50
2019-05-12T09:52:04.528Z,14.20
2019-05-12T09:54:40.300Z,14.40
2019-05-12T09:57:04.395Z,14.10
2019-05-12T09:59:33.665Z,13.90
2019-05-12T10:02:03.739Z,14.00
2019-05-12T10:04:33.138Z,13.70
2019-05-12T10:07:03.793Z,13.60
2019-05-12T10:09:33.569Z,13.30
2019-05-12T10:12:05.372Z,13.00
2019-05-12T10:14:33.175Z,12.50
2019-05-12T10:17:03.587Z,12.10
2019-05-12T10:19:34.050Z,11.80
2019-05-12T10:22:03.094Z,11.70
2019-05-12T10:24:40.585Z,11.50
2019-05-12T10:27:03.774Z,11.70
2019-05-12T10:29:33.154Z,12.10
2019-05-12T10:32:03.993Z,12.60
2019-05-12T10:34:35.814Z,12.90
2019-05-12T10:37:04.118Z,13.40
2019-05-12T10:39:33.523Z,13.30
2019-05-12T10:42:02.621Z,13.20
2019-05-12T10:44:37.710Z,13.00
2019-05-12T10:47:04.471Z,13.10
2019-05-12T10:49:33.791Z,13.80
2019-05-12T10:52:03.889Z,14.30
2019-05-12T10:54:34.306Z,14.50
2019-05-12T10:57:05.043Z,14.60
2019-05-12T10:59:38.677Z,14.20
2019-05-12T11:02:04.837Z,13.80
2019-05-12T11:04:38.901Z,14.10
2019-05-12T11:07:05.276Z,14.10
2019-05-12T11:09:34.678Z,14.40
2019-05-12T11:12:03.899Z,14.90
2019-05-12T11:14:34.150Z,15.00
2019-05-12T11:17:07.828Z,15.20
2019-05-12T11:19:40.848Z,15.40
2019-05-12T11:22:06.322Z,15.70
2019-05-12T11:24:35.311Z,16.00
2019-05-12T11:27:04.414Z,14.90
2019-05-12T11:29:45.763Z,14.40
2019-05-12T11:32:04.171Z,14.70
2019-05-12T11:34:33.545Z,14.80
2019-05-12T11:37:03.469Z,15.00
2019-05-12T11:39:36.693Z,15.00
2019-05-12T11:42:04.205Z,15.10
2019-05-12T11:44:33.684Z,15.40
2019-05-12T11:47:03.705Z,15.60
2019-05-12T11:49:33.375Z,15.60
2019-05-12T11:52:07.688Z,15.20
2019-05-12T11:54:33.589Z,15.50
2019-05-12T11:57:02.652Z,15.20
2019-05-12T11:59:31.565Z,15.50
2019-05-12T12:02:00.495Z,16.00
2019-05-12T12:04:46.782Z,16.30
2019-05-12T12:07:19.115Z,16.70
2019-05-12T12:10:07.827Z,16.20
2019-05-12T12:12:39.666Z,16.30
2019-05-12T12:15:08.020Z,16.30
2019-05-12T12:17:37.408Z,16.50
2019-05-12T12:20:07.235Z,16.80
2019-05-12T12:22:46.603Z,16.80
2019-05-12T12:25:23.607Z,16.80
2019-05-12T12:27:53.732Z,17.10
2019-05-12T12:30:23.737Z,17.00
2019-05-12T12:32:57.190Z,17.00
2019-05-12T12:35:24.992Z,17.70
2019-05-12T12:37:54.249Z,17.30
2019-05-12T12:40:23.195Z,17.40
2019-05-12T12:42:53.814Z,17.40
2019-05-12T12:45:30.427Z,17.20
2019-05-12T12:47:58.650Z,16.90
2019-05-12T12:50:30.527Z,16.90
2019-05-12T12:52:58.859Z,17.10
2019-05-12T12:55:28.099Z,17.30
2019-05-12T12:57:57.492Z,17.10
2019-05-12T13:00:32.125Z,17.90
2019-05-12T13:02:57.644Z,17.50
2019-05-12T13:05:26.564Z,17.40
2019-05-12T13:07:55.625Z,17.60
2019-05-12T13:10:25.002Z,17.90
2019-05-12T13:12:56.523Z,17.80
2019-05-12T13:15:24.708Z,17.50
2019-05-12T13:18:02.158Z,17.30
2019-05-12T13:20:36.177Z,17.50
2019-05-12T13:23:08.267Z,17.50
2019-05-12T13:25:50.424Z,17.60
2019-05-12T13:28:19.006Z,18.10
2019-05-12T13:30:48.724Z,17.80
2019-05-12T13:33:23.372Z,17.30
2019-05-12T13:35:50.126Z,17.50
2019-05-12T13:38:20.004Z,17.60
2019-05-12T13:40:48.895Z,17.30
2019-05-12T13:43:19.646Z,17.00
2019-05-12T13:45:48.674Z,17.10
2019-05-12T13:48:19.789Z,17.40
2019-05-12T13:50:48.514Z,17.50
2019-05-12T13:53:17.473Z,17.80
2019-05-12T13:55:49.524Z,17.70
2019-05-12T13:58:17.254Z,17.80
2019-05-12T14:00:50.872Z,17.90
2019-05-12T14:03:16.949Z,17.50
2019-05-12T14:05:50.489Z,17.70
2019-05-12T14:08:16.521Z,16.90
2019-05-12T14:10:53.566Z,16.80
2019-05-12T14:13:16.502Z,17.40
2019-05-12T14:15:46.505Z,17.60
2019-05-12T14:18:20.586Z,17.60
2019-05-12T14:20:50.751Z,17.40
2019-05-12T14:23:18.518Z,18.00
2019-05-12T14:25:47.509Z,17.80
2019-05-12T14:28:16.837Z,17.70
2019-05-12T14:30:49.636Z,17.70
2019-05-12T14:33:24.633Z,17.60
2019-05-12T14:36:03.900Z,17.30
2019-05-12T14:38:37.822Z,17.70
2019-05-12T14:41:10.374Z,17.10
2019-05-12T14:43:36.615Z,17.40
2019-05-12T14:46:10.188Z,17.80
2019-05-12T14:48:40.149Z,17.80
2019-05-12T14:51:07.846Z,17.50
2019-05-12T14:53:38.255Z,17.70
2019-05-12T14:56:07.683Z,17.40
2019-05-12T14:58:36.762Z,18.30
2019-05-12T15:01:05.754Z,18.60
2019-05-12T15:03:34.851Z,18.00
2019-05-12T15:06:07.257Z,17.70
2019-05-12T15:08:37.210Z,18.00
2019-05-12T15:11:06.814Z,17.70
2019-05-12T15:13:35.871Z,17.60
2019-05-12T15:16:04.899Z,17.70
2019-05-12T15:18:33.853Z,17.20
2019-05-12T15:21:05.124Z,17.10
2019-05-12T15:23:44.017Z,17.50
2019-05-12T15:26:19.846Z,17.70
2019-05-12T15:28:54.776Z,17.50
2019-05-12T15:31:26.006Z,17.50
2019-05-12T15:34:03.667Z,17.70
2019-05-12T15:36:48.618Z,17.40
2019-05-12T15:39:20.562Z,17.10
2019-05-12T15:41:51.121Z,17.00
2019-05-12T15:44:24.756Z,16.60
2019-05-12T15:46:50.016Z,16.60
2019-05-12T15:49:18.982Z,16.30
2019-05-12T15:51:54.020Z,16.40
2019-05-12T15:54:18.440Z,16.20
2019-05-12T15:56:47.491Z,15.60
2019-05-12T15:59:17.428Z,15.30
2019-05-12T16:02:11.789Z,15.20
2019-05-12T16:04:42.715Z,15.50
2019-05-12T16:07:15.097Z,15.40
2019-05-12T16:09:54.676Z,15.30
2019-05-12T16:12:34.327Z,15.10
2019-05-12T16:15:11.318Z,15.00
2019-05-12T16:17:49.926Z,14.80
2019-05-12T16:20:25.524Z,14.60
2019-05-12T16:23:04.154Z,14.30
2019-05-12T16:25:44.565Z,14.10
2019-05-12T16:28:25.919Z,13.70
2019-05-12T16:30:58.813Z,13.70
2019-05-12T16:33:26.179Z,13.60
2019-05-12T16:36:00.044Z,13.30
2019-05-12T16:38:35.165Z,13.20
2019-05-12T16:41:14.370Z,13.30
2019-05-12T16:43:49.617Z,13.20
2019-05-12T16:46:29.728Z,12.90
2019-05-12T16:49:05.621Z,12.60
2019-05-12T16:51:37.985Z,12.40
2019-05-12T16:54:12.708Z,12.20
2019-05-12T16:56:46.479Z,12.20
2019-05-12T16:59:20.139Z,12.10
2019-05-12T17:01:45.920Z,12.20
2019-05-12T17:04:14.873Z,12.20
2019-05-12T17:06:46.979Z,12.40
2019-05-12T17:09:14.477Z,12.60
2019-05-12T17:11:52.385Z,12.40
2019-05-12T17:14:16.683Z,12.30
2019-05-12T17:16:46.706Z,12.40
2019-05-12T17:19:15.989Z,12.20
2019-05-12T17:21:49.425Z,12.20
2019-05-12T17:24:15.453Z,11.90
2019-05-12T17:26:44.492Z,11.80
2019-05-12T17:29:13.846Z,11.60
2019-05-12T17:31:44.468Z,11.60
2019-05-12T17:34:14.272Z,11.60
2019-05-12T17:36:44.821Z,11.40
2019-05-12T17:39:14.038Z,11.50
2019-05-12T17:41:45.551Z,11.50
2019-05-12T17:44:13.712Z,11.50
2019-05-12T17:46:44.089Z,11.50
2019-05-12T17:49:15.805Z,11.50
2019-05-12T17:51:43.947Z,11.50
2019-05-12T17:54:21.297Z,11.50
2019-05-12T17:56:43.427Z,11.50
2019-05-12T17:59:16.982Z,11.50
2019-05-12T18:01:43.574Z,11.30
2019-05-12T18:04:13.920Z,11.30
2019-05-12T18:06:44.156Z,11.30
2019-05-12T18:09:15.877Z,11.30
2019-05-12T18:11:46.159Z,11.30
2019-05-12T18:14:15.337Z,11.20
2019-05-12T18:16:44.226Z,11.20
2019-05-12T18:19:15.389Z,11.20
2019-05-12T18:21:45.095Z,11.10
2019-05-12T18:24:14.304Z,11.00
2019-05-12T18:26:47.147Z,11.10
2019-05-12T18:29:14.679Z,11.00
2019-05-12T18:31:43.816Z,10.90
2019-05-12T18:34:13.905Z,10.90
2019-05-12T18:36:43.010Z,10.90
2019-05-12T18:39:14.929Z,10.90
2019-05-12T18:41:43.897Z,11.00
2019-05-12T18:44:18.273Z,11.00
2019-05-12T18:46:46.473Z,11.00
2019-05-12T18:49:16.103Z,11.10
2019-05-12T18:51:49.035Z,11.00
2019-05-12T18:54:15.262Z,10.90
2019-05-12T18:56:44.178Z,10.90
2019-05-12T18:59:16.249Z,10.90
2019-05-12T19:01:43.884Z,10.80
2019-05-12T19:04:14.343Z,10.80
2019-05-12T19:06:43.957Z,10.80
2019-05-12T19:09:13.976Z,10.70
2019-05-12T19:11:46.363Z,10.70
2019-05-12T19:14:13.736Z,10.80
2019-05-12T19:16:43.609Z,10.70
2019-05-12T19:19:16.429Z,10.70
2019-05-12T19:21:46.833Z,10.70
2019-05-12T19:24:19.760Z,10.60
2019-05-12T19:26:46.616Z,10.60
2019-05-12T19:29:15.764Z,10.50
2019-05-12T19:31:52.019Z,10.40
2019-05-12T19:34:21.995Z,10.50
2019-05-12T19:36:49.378Z,10.50
2019-05-12T19:39:16.473Z,10.40
2019-05-12T19:41:45.377Z,10.40
2019-05-12T19:44:14.300Z,10.40
2019-05-12T19:46:46.097Z,10.40
2019-05-12T19:49:14.010Z,10.40
2019-05-12T19:51:43.843Z,10.30
2019-05-12T19:54:13.996Z,10.30
2019-05-12T19:56:43.713Z,10.20
2019-05-12T19:59:14.496Z,10.20
2019-05-12T20:01:44.722Z,10.20
2019-05-12T20:04:15.504Z,10.20
2019-05-12T20:06:44.476Z,10.20
2019-05-12T20:09:14.645Z,10.10
2019-05-12T20:11:43.866Z,10.10
2019-05-12T20:14:16.626Z,10.00
2019-05-12T20:16:44.018Z,10.00
2019-05-12T20:19:13.550Z,10.00
2019-05-12T20:21:54.326Z,10.00
2019-05-12T20:24:23.678Z,10.00
2019-05-12T20:27:04.021Z,10.00
2019-05-12T20:29:43.455Z,10.00
2019-05-12T20:32:18.210Z,9.90
2019-05-12T20:34:56.475Z,9.90
2019-05-12T20:37:24.455Z,9.90
2019-05-12T20:40:00.283Z,9.90
2019-05-12T20:42:35.630Z,9.80
2019-05-12T20:45:06.454Z,9.90
2019-05-12T20:47:45.018Z,9.80
2019-05-12T20:50:14.719Z,9.80
2019-05-12T20:52:49.659Z,9.80
2019-05-12T20:55:14.838Z,9.80
2019-05-12T20:57:50.253Z,9.70
2019-05-12T21:00:15.617Z,9.70
2019-05-12T21:02:44.913Z,9.70
2019-05-12T21:05:19.907Z,9.70
2019-05-12T21:07:45.892Z,9.60
2019-05-12T21:10:19.566Z,9.60
2019-05-12T21:12:49.881Z,9.60
2019-05-12T21:15:20.506Z,9.60
2019-05-12T21:17:58.306Z,9.60
2019-05-12T21:20:18.897Z,9.60
2019-05-12T21:22:48.137Z,9.60
2019-05-12T21:25:17.324Z,9.60
2019-05-12T21:27:47.820Z,9.60
2019-05-12T21:30:17.169Z,9.60
2019-05-12T21:32:55.539Z,9.60
2019-05-12T21:35:22.316Z,9.60
2019-05-12T21:37:48.588Z,9.60
2019-05-12T21:40:24.291Z,9.60
2019-05-12T21:42:48.710Z,9.50
2019-05-12T21:45:20.234Z,9.60
2019-05-12T21:47:48.311Z,9.60
2019-05-12T21:50:24.109Z,9.60
2019-05-12T21:52:49.571Z,9.60
2019-05-12T21:55:28.546Z,9.50
2019-05-12T21:58:12.106Z,9.50
2019-05-12T22:00:59.564Z,9.50
2019-05-12T22:03:24.300Z,9.40
2019-05-12T22:05:55.611Z,9.40
2019-05-12T22:08:25.554Z,9.40
2019-05-12T22:10:54.585Z,9.40
2019-05-12T22:13:23.539Z,9.40
2019-05-12T22:15:56.961Z,9.40
2019-05-12T22:18:23.855Z,9.30
2019-05-12T22:21:01.118Z,9.40
2019-05-12T22:23:24.809Z,9.40
2019-05-12T22:25:57.747Z,9.40
2019-05-12T22:28:24.652Z,9.50
2019-05-12T22:30:54.176Z,9.40
2019-05-12T22:33:24.206Z,9.40
2019-05-12T22:36:02.800Z,9.40
2019-05-12T22:38:24.770Z,9.40
2019-05-12T22:40:56.104Z,9.40
2019-05-12T22:43:24.488Z,9.40
2019-05-12T22:45:54.696Z,9.40
2019-05-12T22:48:24.028Z,9.40
2019-05-12T22:50:54.890Z,9.50
2019-05-12T22:53:25.890Z,9.50
2019-05-12T22:55:54.225Z,9.50
2019-05-12T22:58:25.420Z,9.60
2019-05-12T23:01:01.303Z,9.60
2019-05-12T23:03:24.585Z,9.60
2019-05-12T23:06:00.050Z,9.60
2019-05-12T23:08:24.674Z,9.60
2019-05-12T23:10:56.198Z,9.60
2019-05-12T23:13:25.369Z,9.60
2019-05-12T23:15:54.284Z,9.60
2019-05-12T23:18:28.782Z,9.50
2019-05-12T23:20:54.260Z,9.60
2019-05-12T23:23:24.362Z,9.60
2019-05-12T23:26:00.161Z,9.60
2019-05-12T23:28:24.361Z,9.60
2019-05-12T23:30:53.578Z,9.60
2019-05-12T23:33:25.958Z,9.60
2019-05-12T23:35:53.595Z,9.60
2019-05-12T23:38:24.540Z,9.60
2019-05-12T23:40:53.756Z,9.70
2019-05-12T23:43:23.724Z,9.70
2019-05-12T23:45:53.348Z,9.70
2019-05-12T23:48:22.656Z,9.70
2019-05-12T23:50:54.139Z,9.70
2019-05-12T23:53:24.205Z,9.70
2019-05-12T23:55:54.137Z,9.70
2019-05-12T23:58:23.588Z,9.70
